Terminal Aerodrome Forecast
Issued by NWS

Home | Current Version | Previous Version | Text Only | Print | Product List | Glossary On
Versions: 1 2 3 4 5 6 7 8 9 10 11 12 13
000
FTUS46 KHNX 261732
TAFBFL
TAF
KBFL 261732Z 2618/2718 31008KT P6SM FEW200
     FM262200 30010G15KT P6SM SCT200
     FM270300 VRB05KT P6SM BKN200=

USA.gov is the U.S. government's official web portal to all federal, state and local government web resources and services.